Haicheng, China
Current Conditions -  °F | °C
As of 10:00 AM on Monday 26 Jan 2015 (Local Time) from ZYTX Reporting Station
Clear Clear  
Wind Chill: 11°   Ceiling: Unl
Heat Index: 23°   Visibility: 4mi
Dew Point: 14°   Wind: 13mph
Humidity: 68%   Direction: 330°NNW
Pressure: 30.27"   Gusts: NA
Location:  40.86°N, 122.74°E
Report Text: ZYTX 260200Z 33006MPS 6000 NSC M05/M10 Q1025 NOSIG
Loading
Personal Weather Stations






























Interactive Weather Map New forecast layout! Learn more

10-Day Weather Forecast

Advertisements
Track Severe Weather on mobile